This is the latest recevied weather packets stored in our database for station/object DW2488. If no packets are shown the sender has not sent any weather packets the latest 10 day(s).
| Time | Temp. | Humidity | Pressure | Rain* | Wind** | Luminosity | Snow |
|---|---|---|---|---|---|---|---|
| 1777807157 | 16.11° C | 83% | 1018.9 hPa | 0 mm | - | 0 W/m² | - |
| 1777806270 | 16.67° C | 82% | 1018.7 hPa | 0 mm | - | 0 W/m² | - |
| 1777805351 | 16.67° C | 82% | 1018.7 hPa | 0 mm | - | 0 W/m² | - |
| 1777804458 | 17.22° C | 81% | 1018.7 hPa | 0 mm | - | 0 W/m² | - |
| 1777803557 | 17.78° C | 80% | 1018.7 hPa | 0 mm | - | 0 W/m² | - |
| 1777802654 | 17.78° C | 79% | 1018.7 hPa | 0 mm | - | 0 W/m² | - |
| 1777801752 | 18.33° C | 78% | 1018.7 hPa | 0 mm | - | 0 W/m² | - |
| 1777800859 | 18.89° C | 77% | 1018.7 hPa | 0 mm | - | 0 W/m² | - |
| 1777799933 | 19.44° C | 76% | 1018.6 hPa | 0 mm | - | 0 W/m² | - |
| 1777799026 | 19.44° C | 76% | 1018.6 hPa | 0 mm | - | 0 W/m² | - |
| 1777798093 | 19.44° C | 75% | 1018.6 hPa | 0 mm | - | 0 W/m² | - |
| 1777797193 | 20° C | 75% | 1018.3 hPa | 0 mm | - | 0 W/m² | - |
| 1777796298 | 20.56° C | 73% | 1018.3 hPa | 0 mm | - | 0 W/m² | - |
| 1777795392 | 20.56° C | 72% | 1018.2 hPa | 0 mm | - | 0 W/m² | - |
| 1777793597 | 21.67° C | 69% | 1018 hPa | 0 mm | - | 0 W/m² | - |
| 1777792692 | 22.22° C | 68% | 1017.9 hPa | 0 mm | - | 0 W/m² | - |
| 1777791792 | 22.78° C | 66% | 1018 hPa | 0 mm | - | 7 W/m² | - |
| 1777790891 | 23.33° C | 63% | 1017.9 hPa | 0 mm | - | 18 W/m² | - |
| 1777789992 | 24.44° C | 60% | 1018 hPa | 0 mm | - | 46 W/m² | - |
| 1777789092 | 25° C | 55% | 1018.1 hPa | 0 mm | - | 83 W/m² | - |
| 1777788191 | 25° C | 55% | 1018.1 hPa | 0 mm | - | 128 W/m² | - |
| 1777787292 | 25° C | 57% | 1018.4 hPa | 0 mm | - | 204 W/m² | - |
| 1777786392 | 24.44° C | 58% | 1018.4 hPa | 0 mm | - | 220 W/m² | - |
| 1777785493 | 24.44° C | 58% | 1018.5 hPa | 0 mm | - | 163 W/m² | - |
| 1777784591 | 25° C | 57% | 1018.7 hPa | 0 mm | - | 165 W/m² | - |
* Rain latest hour (hover to see other rain measurements)
** Current wind speed in m/s (hover to see current wind gust speed)